createdAt,value
2023-03-10T00:01:10.287Z,92336.75
2023-03-10T00:02:46.684Z,92335.72
2023-03-10T00:04:18.220Z,92330.84
2023-03-10T00:05:49.774Z,92326.31
2023-03-10T00:07:21.358Z,92328.38
2023-03-10T00:08:53.081Z,92328.84
2023-03-10T00:10:24.620Z,92337.41
2023-03-10T00:11:56.093Z,92335.97
2023-03-10T00:13:27.821Z,92336.75
2023-03-10T00:14:59.605Z,92325.66
2023-03-10T00:16:31.443Z,92326.09
2023-03-10T00:18:03.038Z,92325.31
2023-03-10T00:19:34.864Z,92329.47
2023-03-10T00:21:06.912Z,92320.13
2023-03-10T00:22:39.009Z,92318.88
2023-03-10T00:24:10.568Z,92315.25
2023-03-10T00:25:42.060Z,92317.94
2023-03-10T00:27:13.639Z,92319.41
2023-03-10T00:28:45.282Z,92321.78
2023-03-10T00:30:16.934Z,92314.94
2023-03-10T00:31:48.561Z,92315.06
2023-03-10T00:33:20.069Z,92312.69
2023-03-10T00:34:51.534Z,92313.03
2023-03-10T00:36:24.007Z,92308.75
2023-03-10T00:38:02.769Z,92302.47
2023-03-10T00:39:34.213Z,92305.34
2023-03-10T00:41:09.402Z,92303.66
2023-03-10T00:42:41.241Z,92308.09
2023-03-10T00:44:12.852Z,92306.38
2023-03-10T00:45:44.609Z,92304.78
2023-03-10T00:47:16.262Z,92307.47
2023-03-10T00:48:47.879Z,92305.94
2023-03-10T00:50:19.496Z,92308.16
2023-03-10T00:51:51.102Z,92303.88
2023-03-10T00:53:22.717Z,92299.28
2023-03-10T00:54:54.548Z,92296.59
2023-03-10T00:56:26.981Z,92305.94
2023-03-10T00:57:58.578Z,92294.03
2023-03-10T00:59:40.482Z,92297.84
2023-03-10T01:01:21.219Z,92301.66
2023-03-10T01:02:55.573Z,92307.84
2023-03-10T01:04:27.334Z,92302.88
2023-03-10T01:05:58.906Z,92311.44
2023-03-10T01:07:30.493Z,92296.41
2023-03-10T01:09:02.045Z,92287.84
2023-03-10T01:10:33.621Z,92290.22
2023-03-10T01:12:05.224Z,92287.84
2023-03-10T01:13:37.599Z,92297.84
2023-03-10T01:15:11.023Z,92302.44
2023-03-10T01:16:42.568Z,92291.22
2023-03-10T01:18:14.266Z,92295.03
2023-03-10T01:19:46.264Z,92291.53
2023-03-10T01:21:22.128Z,92293.13
2023-03-10T01:22:53.648Z,92288.84
2023-03-10T01:24:25.414Z,92287.44
2023-03-10T01:25:57.031Z,92286.88
2023-03-10T01:27:28.636Z,92292.09
2023-03-10T01:29:00.298Z,92291.13
2023-03-10T01:30:31.800Z,92288.59
2023-03-10T01:32:03.684Z,92287.91
2023-03-10T01:33:35.504Z,92286.81
2023-03-10T01:35:07.314Z,92289.00
2023-03-10T01:36:38.850Z,92297.84
2023-03-10T01:40:11.286Z,92297.84
2023-03-10T01:41:43.349Z,92296.94
2023-03-10T01:43:21.237Z,92296.94
2023-03-10T01:45:05.002Z,92293.84
2023-03-10T01:46:36.815Z,92304.44
2023-03-10T01:48:08.412Z,92300.97
2023-03-10T01:49:40.539Z,92303.97
2023-03-10T01:51:12.076Z,92302.38
2023-03-10T01:52:44.293Z,92308.41
2023-03-10T01:54:17.284Z,92310.13
2023-03-10T01:55:50.592Z,92311.38
2023-03-10T01:57:22.843Z,92317.53
2023-03-10T01:58:54.859Z,92306.66
2023-03-10T02:00:26.755Z,92307.94
2023-03-10T02:01:58.305Z,92301.19
2023-03-10T02:03:55.852Z,92310.69
2023-03-10T02:05:27.359Z,92302.63
2023-03-10T02:06:58.930Z,92299.47
2023-03-10T02:08:32.139Z,92299.78
2023-03-10T02:10:04.000Z,92299.00
2023-03-10T02:11:35.585Z,92299.34
2023-03-10T02:13:07.306Z,92302.47
2023-03-10T02:14:39.046Z,92291.28
2023-03-10T02:16:10.710Z,92302.38
2023-03-10T02:17:42.376Z,92294.94
2023-03-10T02:19:20.149Z,92296.38
2023-03-10T02:20:54.633Z,92295.56
2023-03-10T02:22:26.284Z,92292.31
2023-03-10T02:24:05.829Z,92300.22
2023-03-10T02:25:57.363Z,92303.56
2023-03-10T02:27:33.196Z,92297.28
2023-03-10T02:29:06.045Z,92296.66
2023-03-10T02:30:38.951Z,92300.44
2023-03-10T02:32:10.836Z,92292.38
2023-03-10T02:33:44.017Z,92288.56
2023-03-10T02:35:15.711Z,92293.97
2023-03-10T02:36:47.542Z,92287.00
2023-03-10T02:38:19.438Z,92289.22
2023-03-10T02:39:51.023Z,92294.59
2023-03-10T02:41:27.319Z,92296.84
2023-03-10T02:42:59.745Z,92290.84
2023-03-10T02:44:33.887Z,92293.84
2023-03-10T02:46:05.647Z,92289.28
2023-03-10T02:47:38.075Z,92287.38
2023-03-10T02:49:11.098Z,92283.09
2023-03-10T02:50:42.748Z,92280.59
2023-03-10T02:52:24.195Z,92277.44
2023-03-10T02:53:56.272Z,92273.81
2023-03-10T02:55:28.033Z,92276.34
2023-03-10T02:59:02.021Z,92273.66
2023-03-10T03:00:33.617Z,92282.06
2023-03-10T03:02:05.842Z,92280.94
2023-03-10T03:03:37.599Z,92278.41
2023-03-10T03:05:09.461Z,92279.66
2023-03-10T03:06:41.329Z,92276.34
2023-03-10T03:08:13.348Z,92267.16
2023-03-10T03:09:45.232Z,92266.06
2023-03-10T03:11:16.930Z,92269.84
2023-03-10T03:12:50.629Z,92272.53
2023-03-10T03:14:22.325Z,92267.16
2023-03-10T03:15:53.895Z,92269.53
2023-03-10T03:17:25.599Z,92274.91
2023-03-10T03:18:57.453Z,92263.38
2023-03-10T03:20:29.359Z,92265.91
2023-03-10T03:22:00.970Z,92264.97
2023-03-10T03:23:33.860Z,92257.84
2023-03-10T03:25:06.112Z,92257.72
2023-03-10T03:26:37.722Z,92260.72
2023-03-10T03:28:10.065Z,92252.97
2023-03-10T03:29:41.669Z,92261.34
2023-03-10T03:31:14.325Z,92264.69
2023-03-10T03:32:45.987Z,92264.69
2023-03-10T03:34:17.603Z,92263.13
2023-03-10T03:35:49.455Z,92264.22
2023-03-10T03:37:21.011Z,92260.75
2023-03-10T03:38:52.590Z,92266.91
2023-03-10T03:40:24.745Z,92267.72
2023-03-10T03:41:57.544Z,92263.13
2023-03-10T03:43:29.691Z,92264.69
2023-03-10T03:45:01.440Z,92259.31
2023-03-10T03:46:33.267Z,92265.50
2023-03-10T03:48:05.217Z,92262.94
2023-03-10T03:49:37.934Z,92265.78
2023-03-10T03:51:09.450Z,92266.56
2023-03-10T03:52:41.295Z,92263.09
2023-03-10T03:54:13.044Z,92267.50
2023-03-10T03:55:44.711Z,92258.97
2023-03-10T03:57:16.411Z,92254.75
2023-03-10T03:58:48.128Z,92261.53
2023-03-10T04:00:20.665Z,92259.50
2023-03-10T04:01:52.411Z,92255.22
2023-03-10T04:03:24.292Z,92260.59
2023-03-10T04:04:56.501Z,92263.75
2023-03-10T04:06:28.367Z,92257.28
2023-03-10T04:07:59.900Z,92262.34
2023-03-10T04:09:31.594Z,92260.25
2023-03-10T04:11:03.254Z,92258.19
2023-03-10T04:12:35.082Z,92253.59
2023-03-10T04:14:06.810Z,92254.84
2023-03-10T04:15:38.719Z,92254.06
2023-03-10T04:17:12.262Z,92253.28
2023-03-10T04:18:44.945Z,92254.06
2023-03-10T04:20:16.733Z,92256.13
2023-03-10T04:21:48.242Z,92249.31
2023-03-10T04:23:20.145Z,92254.16
2023-03-10T04:24:51.838Z,92238.97
2023-03-10T04:26:23.610Z,92234.84
2023-03-10T04:27:55.562Z,92236.22
2023-03-10T04:29:27.967Z,92230.53
2023-03-10T04:30:59.932Z,92235.44
2023-03-10T04:32:32.547Z,92239.25
2023-03-10T04:34:04.310Z,92240.38
2023-03-10T04:35:38.833Z,92234.31
2023-03-10T04:37:10.400Z,92238.75
2023-03-10T04:38:41.916Z,92239.69
2023-03-10T04:40:13.844Z,92240.13
2023-03-10T04:41:45.658Z,92238.22
2023-03-10T04:43:17.280Z,92240.44
2023-03-10T04:44:48.964Z,92241.56
2023-03-10T04:46:20.647Z,92237.31
2023-03-10T04:47:52.551Z,92226.88
2023-03-10T04:49:24.134Z,92236.06
2023-03-10T04:50:58.848Z,92229.56
2023-03-10T04:52:30.503Z,92227.50
2023-03-10T04:54:02.176Z,92217.09
2023-03-10T04:55:34.096Z,92216.75
2023-03-10T04:57:05.734Z,92211.06
2023-03-10T04:58:37.614Z,92206.00
2023-03-10T05:00:10.268Z,92207.75
2023-03-10T05:01:42.140Z,92209.22
2023-03-10T05:03:14.008Z,92208.09
2023-03-10T05:04:46.071Z,92210.44
2023-03-10T05:06:19.858Z,92204.25
2023-03-10T05:07:52.218Z,92204.50
2023-03-10T05:09:24.362Z,92201.63
2023-03-10T05:10:55.904Z,92205.69
2023-03-10T05:12:32.968Z,92208.84
2023-03-10T05:14:13.528Z,92209.00
2023-03-10T05:15:49.017Z,92209.16
2023-03-10T05:17:28.024Z,92201.63
2023-03-10T05:22:43.477Z,92202.53
2023-03-10T05:24:15.519Z,92200.16
2023-03-10T05:25:47.220Z,92189.34
2023-03-10T05:27:19.977Z,92184.25
2023-03-10T05:28:51.515Z,92187.13
2023-03-10T05:30:23.135Z,92187.19
2023-03-10T05:31:54.711Z,92191.81
2023-03-10T05:33:26.382Z,92185.53
2023-03-10T05:34:57.809Z,92195.38
2023-03-10T05:36:29.686Z,92196.31
2023-03-10T05:38:01.202Z,92193.34
2023-03-10T05:39:32.690Z,92195.28
2023-03-10T05:41:09.722Z,92198.63
2023-03-10T05:42:41.294Z,92207.31
2023-03-10T05:44:12.858Z,92207.78
2023-03-10T05:45:44.385Z,92195.63
2023-03-10T05:47:19.146Z,92203.81
2023-03-10T05:48:50.830Z,92200.94
2023-03-10T05:50:22.381Z,92200.44
2023-03-10T05:51:53.846Z,92187.16
2023-03-10T05:53:25.552Z,92191.88
2023-03-10T05:54:57.027Z,92191.34
2023-03-10T05:56:28.558Z,92195.78
2023-03-10T05:58:00.097Z,92190.97
2023-03-10T05:59:31.772Z,92196.50
2023-03-10T06:01:03.396Z,92188.91
2023-03-10T06:05:15.732Z,92198.34
2023-03-10T06:09:20.137Z,92206.00
2023-03-10T06:10:51.711Z,92208.19
2023-03-10T06:12:23.341Z,92214.94
2023-03-10T06:13:54.931Z,92214.09
2023-03-10T06:15:32.699Z,92217.56
2023-03-10T06:17:04.372Z,92211.22
2023-03-10T06:18:36.146Z,92221.44
2023-03-10T06:20:11.651Z,92217.63
2023-03-10T06:21:44.872Z,92221.31
2023-03-10T06:23:17.091Z,92216.72
2023-03-10T06:24:48.560Z,92212.13
2023-03-10T06:26:20.168Z,92214.47
2023-03-10T06:27:51.655Z,92214.28
2023-03-10T06:29:23.277Z,92216.56
2023-03-10T06:30:56.333Z,92215.69
2023-03-10T06:32:39.938Z,92220.91
2023-03-10T06:34:13.843Z,92218.66
2023-03-10T06:35:45.700Z,92224.84
2023-03-10T06:37:17.315Z,92220.34
2023-03-10T06:38:48.826Z,92220.16
2023-03-10T06:40:20.473Z,92218.03
2023-03-10T06:41:51.956Z,92208.97
2023-03-10T06:43:23.510Z,92215.13
2023-03-10T06:44:55.614Z,92216.06
2023-03-10T06:46:28.636Z,92220.59
2023-03-10T06:48:01.094Z,92215.75
2023-03-10T06:49:33.065Z,92215.88
2023-03-10T06:51:09.493Z,92217.13
2023-03-10T06:52:44.074Z,92223.53
2023-03-10T06:54:28.528Z,92223.22
2023-03-10T06:56:04.624Z,92226.28
2023-03-10T06:57:36.252Z,92220.56
2023-03-10T06:59:07.893Z,92218.06
2023-03-10T07:00:39.821Z,92216.41
2023-03-10T07:02:17.397Z,92215.38
2023-03-10T07:03:50.006Z,92221.91
2023-03-10T07:05:26.548Z,92207.53
2023-03-10T07:07:06.100Z,92205.06
2023-03-10T07:08:41.933Z,92201.81
2023-03-10T07:10:28.476Z,92207.53
2023-03-10T07:12:00.418Z,92199.44
2023-03-10T07:13:32.017Z,92201.09
2023-03-10T07:15:03.833Z,92198.19
2023-03-10T07:16:35.647Z,92194.59
2023-03-10T07:18:07.364Z,92188.88
2023-03-10T07:19:38.855Z,92191.03
2023-03-10T07:21:15.011Z,92193.47
2023-03-10T07:22:51.336Z,92199.00
2023-03-10T07:24:25.395Z,92190.66
2023-03-10T07:25:58.423Z,92186.97
2023-03-10T07:27:30.547Z,92184.81
2023-03-10T07:29:03.536Z,92188.06
2023-03-10T07:30:35.084Z,92188.53
2023-03-10T07:32:06.656Z,92183.09
2023-03-10T07:33:39.184Z,92177.56
2023-03-10T07:35:15.411Z,92182.38
2023-03-10T07:36:48.312Z,92187.44
2023-03-10T07:38:24.289Z,92180.72
2023-03-10T07:39:56.291Z,92180.25
2023-03-10T07:41:31.837Z,92176.50
2023-03-10T07:43:05.121Z,92171.31
2023-03-10T07:44:36.945Z,92177.50
2023-03-10T07:46:09.795Z,92174.44
2023-03-10T07:47:41.710Z,92164.53
2023-03-10T07:49:13.382Z,92162.59
2023-03-10T07:50:45.000Z,92150.84
2023-03-10T07:52:16.790Z,92145.91
2023-03-10T07:53:48.394Z,92140.34
2023-03-10T07:55:19.999Z,92139.06
2023-03-10T07:56:51.727Z,92129.91
2023-03-10T07:58:23.368Z,92136.63
2023-03-10T07:59:55.376Z,92119.91
2023-03-10T08:01:27.261Z,92128.00
2023-03-10T08:02:58.884Z,92126.34
2023-03-10T08:04:30.816Z,92114.41
2023-03-10T08:06:03.976Z,92121.47
2023-03-10T08:07:35.986Z,92119.06
2023-03-10T08:09:07.828Z,92117.25
2023-03-10T08:10:40.416Z,92119.84
2023-03-10T08:12:12.075Z,92110.06
2023-03-10T08:13:46.511Z,92112.75
2023-03-10T08:15:22.152Z,92110.75
2023-03-10T08:16:59.250Z,92113.22
2023-03-10T08:18:35.223Z,92111.41
2023-03-10T08:20:10.575Z,92116.69
2023-03-10T08:21:42.190Z,92113.69
2023-03-10T08:23:13.734Z,92111.88
2023-03-10T08:24:45.654Z,92108.81
2023-03-10T08:26:17.726Z,92107.75
2023-03-10T08:27:50.252Z,92106.00
2023-03-10T08:29:22.374Z,92110.09
2023-03-10T08:31:04.435Z,92108.97
2023-03-10T08:32:37.761Z,92110.84
2023-03-10T08:34:09.299Z,92098.31
2023-03-10T08:35:41.600Z,92104.28
2023-03-10T08:37:13.318Z,92103.75
2023-03-10T08:38:45.531Z,92098.66
2023-03-10T08:40:17.224Z,92105.09
2023-03-10T08:41:49.978Z,92102.66
2023-03-10T08:43:21.607Z,92099.69
2023-03-10T08:44:55.407Z,92098.03
2023-03-10T08:46:27.947Z,92092.63
2023-03-10T08:47:59.499Z,92092.34
2023-03-10T08:49:31.545Z,92101.41
2023-03-10T08:51:04.403Z,92093.03
2023-03-10T08:52:36.321Z,92079.94
2023-03-10T08:54:07.988Z,92080.75
2023-03-10T08:55:40.388Z,92073.88
2023-03-10T08:57:12.006Z,92066.25
2023-03-10T08:58:44.186Z,92065.47
2023-03-10T09:00:17.285Z,92067.88
2023-03-10T09:01:49.105Z,92073.38
2023-03-10T09:03:20.948Z,92063.38
2023-03-10T09:04:52.886Z,92067.75
2023-03-10T09:06:24.467Z,92069.03
2023-03-10T09:07:56.129Z,92073.25
2023-03-10T09:09:27.871Z,92064.25
2023-03-10T09:10:59.847Z,92073.16
2023-03-10T09:12:35.576Z,92063.59
2023-03-10T09:14:09.582Z,92062.56
2023-03-10T09:16:12.006Z,92069.66
2023-03-10T09:17:52.811Z,92059.75
2023-03-10T09:20:01.243Z,92058.78
2023-03-10T09:21:33.955Z,92046.41
2023-03-10T09:23:05.844Z,92052.78
2023-03-10T09:24:37.539Z,92056.63
2023-03-10T09:26:09.156Z,92041.88
2023-03-10T09:27:40.911Z,92049.94
2023-03-10T09:29:12.545Z,92036.69
2023-03-10T09:30:44.167Z,92046.81
2023-03-10T09:32:15.921Z,92039.47
2023-03-10T09:33:48.375Z,92035.63
2023-03-10T09:35:21.028Z,92034.16
2023-03-10T09:36:52.714Z,92024.97
2023-03-10T09:38:28.805Z,92019.09
2023-03-10T09:40:09.043Z,92011.44
2023-03-10T09:42:02.682Z,92013.34
2023-03-10T09:43:42.220Z,92024.16
2023-03-10T09:47:52.184Z,92010.22
2023-03-10T09:49:32.137Z,92010.56
2023-03-10T09:51:06.656Z,92013.00
2023-03-10T09:52:41.357Z,92017.34
2023-03-10T09:54:34.893Z,92013.44
2023-03-10T09:56:13.744Z,92013.88
2023-03-10T09:57:47.096Z,92017.34
2023-03-10T09:59:22.699Z,92005.75
2023-03-10T10:00:54.857Z,92009.16
2023-03-10T10:02:31.582Z,92008.81
2023-03-10T10:04:08.303Z,92012.78
2023-03-10T10:05:40.053Z,92007.25
2023-03-10T10:07:14.583Z,92010.22
2023-03-10T10:09:04.599Z,92012.78
2023-03-10T10:10:37.582Z,92006.31
2023-03-10T10:12:16.084Z,92012.78
2023-03-10T10:13:48.200Z,92015.81
2023-03-10T10:15:22.967Z,92010.69
2023-03-10T10:17:13.174Z,92027.72
2023-03-10T10:18:47.190Z,92017.72
2023-03-10T10:20:20.655Z,92027.84
2023-03-10T10:21:58.057Z,92014.41
2023-03-10T10:23:40.549Z,92015.78
2023-03-10T10:25:16.997Z,92010.75
2023-03-10T10:26:48.909Z,92008.75
2023-03-10T10:28:33.352Z,92009.97
2023-03-10T10:30:26.139Z,92009.25
2023-03-10T10:32:04.775Z,92009.19
2023-03-10T10:33:51.197Z,92006.84
2023-03-10T10:35:23.747Z,92006.63
2023-03-10T10:36:55.999Z,92010.47
2023-03-10T10:38:28.477Z,92003.16
2023-03-10T10:40:00.289Z,92013.97
2023-03-10T10:41:32.742Z,92019.97
2023-03-10T10:43:07.746Z,92017.88
2023-03-10T10:44:42.632Z,92011.69
2023-03-10T10:46:15.145Z,92001.41
2023-03-10T10:47:50.405Z,92001.97
2023-03-10T10:49:24.788Z,91990.09
2023-03-10T10:50:56.376Z,91989.41
2023-03-10T10:52:27.994Z,91995.25
2023-03-10T10:54:00.182Z,91991.66
2023-03-10T10:55:35.204Z,91992.19
2023-03-10T10:57:16.141Z,91998.81
2023-03-10T10:59:03.147Z,91993.41
2023-03-10T11:00:37.029Z,91987.59
2023-03-10T11:02:25.016Z,91994.38
2023-03-10T11:04:04.854Z,91990.03
2023-03-10T11:05:37.756Z,91996.63
2023-03-10T11:07:17.426Z,92001.31
2023-03-10T11:08:51.444Z,91997.59
2023-03-10T11:10:26.374Z,92002.81
2023-03-10T11:12:07.245Z,92007.53
2023-03-10T11:13:59.590Z,92003.16
2023-03-10T11:15:33.853Z,92007.69
2023-03-10T11:17:20.452Z,92004.47
2023-03-10T11:19:21.605Z,92005.59
2023-03-10T11:21:12.689Z,92002.97
2023-03-10T11:22:55.989Z,91992.56
2023-03-10T11:24:39.638Z,91992.38
2023-03-10T11:26:17.807Z,91981.38
2023-03-10T11:27:53.834Z,91993.00
2023-03-10T11:29:40.270Z,91981.50
2023-03-10T11:31:19.621Z,91984.56
2023-03-10T11:33:08.417Z,91972.78
2023-03-10T11:34:47.669Z,91967.50
2023-03-10T11:36:29.782Z,91947.88
2023-03-10T11:38:13.914Z,91943.97
2023-03-10T11:39:49.373Z,91941.75
2023-03-10T11:41:24.778Z,91947.69
2023-03-10T11:43:25.702Z,91937.03
2023-03-10T11:45:17.285Z,91930.66
2023-03-10T11:46:51.060Z,91927.53
2023-03-10T11:48:30.394Z,91926.16
2023-03-10T11:50:24.092Z,91916.50
2023-03-10T11:52:00.369Z,91910.13
2023-03-10T11:53:37.853Z,91911.44
2023-03-10T11:55:12.886Z,91914.59
2023-03-10T11:56:50.303Z,91916.81
2023-03-10T11:58:24.657Z,91901.31
2023-03-10T12:00:02.164Z,91908.72
2023-03-10T12:01:40.176Z,91897.06
2023-03-10T12:03:21.187Z,91897.06
2023-03-10T12:05:05.141Z,91880.13
2023-03-10T12:06:46.005Z,91873.25
2023-03-10T12:08:22.016Z,91871.00
2023-03-10T12:09:58.404Z,91861.47
2023-03-10T12:11:30.026Z,91874.69
2023-03-10T12:13:02.336Z,91866.63
2023-03-10T12:14:34.131Z,91865.41
2023-03-10T12:16:06.364Z,91857.06
2023-03-10T12:17:38.503Z,91863.25
2023-03-10T12:19:10.579Z,91849.44
2023-03-10T12:20:42.456Z,91846.75
2023-03-10T12:22:23.472Z,91854.38
2023-03-10T12:23:56.309Z,91845.88
2023-03-10T12:25:28.126Z,91836.66
2023-03-10T12:27:01.686Z,91827.44
2023-03-10T12:28:34.058Z,91834.41
2023-03-10T12:30:26.569Z,91836.75
2023-03-10T12:31:58.555Z,91835.00
2023-03-10T12:33:42.842Z,91819.50
2023-03-10T12:35:29.210Z,91819.63
2023-03-10T12:37:10.690Z,91823.03
2023-03-10T12:38:42.766Z,91811.84
2023-03-10T12:40:33.030Z,91805.25
2023-03-10T12:42:26.124Z,91816.41
2023-03-10T12:43:58.266Z,91815.22
2023-03-10T12:45:29.781Z,91812.00
2023-03-10T12:47:20.484Z,91810.78
2023-03-10T12:49:06.989Z,91827.75
2023-03-10T12:50:41.308Z,91816.50
2023-03-10T12:52:25.445Z,91800.56
2023-03-10T12:53:59.392Z,91782.00
2023-03-10T12:55:31.037Z,91785.72
2023-03-10T12:57:16.790Z,91776.47
2023-03-10T12:58:55.205Z,91780.03
2023-03-10T13:00:29.877Z,91783.88
2023-03-10T13:02:01.397Z,91784.66
2023-03-10T13:03:35.953Z,91791.44
2023-03-10T13:05:08.250Z,91800.66
2023-03-10T13:06:40.272Z,91777.38
2023-03-10T13:08:13.299Z,91771.47
2023-03-10T13:09:45.768Z,91769.72
2023-03-10T13:11:20.458Z,91774.94
2023-03-10T13:12:54.253Z,91758.09
2023-03-10T13:14:36.489Z,91760.16
2023-03-10T13:16:08.491Z,91754.34
2023-03-10T13:17:40.647Z,91762.53
2023-03-10T13:19:19.753Z,91754.50
2023-03-10T13:20:51.575Z,91750.50
2023-03-10T13:22:23.702Z,91751.97
2023-03-10T13:23:56.349Z,91752.06
2023-03-10T13:25:28.670Z,91744.88
2023-03-10T13:27:04.444Z,91747.50
2023-03-10T13:28:36.573Z,91737.50
2023-03-10T13:30:11.340Z,91743.69
2023-03-10T13:31:43.696Z,91746.19
2023-03-10T13:33:26.109Z,91737.00
2023-03-10T13:35:00.623Z,91734.91
2023-03-10T13:36:36.506Z,91737.09
2023-03-10T13:38:14.382Z,91725.00
2023-03-10T13:39:46.203Z,91729.28
2023-03-10T13:41:17.900Z,91721.22
2023-03-10T13:42:49.661Z,91725.16
2023-03-10T13:44:22.399Z,91722.00
2023-03-10T13:45:55.497Z,91715.66
2023-03-10T13:47:27.190Z,91726.34
2023-03-10T13:49:04.242Z,91724.03
2023-03-10T13:50:35.883Z,91724.06
2023-03-10T13:52:08.104Z,91724.91
2023-03-10T13:53:39.647Z,91733.31
2023-03-10T13:55:14.780Z,91723.25
2023-03-10T13:56:46.441Z,91715.94
2023-03-10T13:58:18.129Z,91717.44
2023-03-10T13:59:50.149Z,91714.63
2023-03-10T14:01:28.244Z,91711.47
2023-03-10T14:03:00.001Z,91708.34
2023-03-10T14:04:38.574Z,91713.31
2023-03-10T14:06:13.703Z,91717.47
2023-03-10T14:07:45.367Z,91722.88
2023-03-10T14:09:23.241Z,91721.25
2023-03-10T14:11:13.632Z,91705.75
2023-03-10T14:12:46.014Z,91724.22
2023-03-10T14:14:30.955Z,91727.09
2023-03-10T14:16:03.005Z,91710.88
2023-03-10T14:17:35.380Z,91712.59
2023-03-10T14:19:08.766Z,91709.69
2023-03-10T14:20:40.858Z,91715.75
2023-03-10T14:22:33.080Z,91703.38
2023-03-10T14:24:11.116Z,91703.03
2023-03-10T14:25:42.687Z,91698.84
2023-03-10T14:27:14.304Z,91699.19
2023-03-10T14:28:45.860Z,91710.19
2023-03-10T14:30:24.766Z,91699.94
2023-03-10T14:31:57.056Z,91716.41
2023-03-10T14:33:29.066Z,91709.56
2023-03-10T14:35:00.854Z,91700.31
2023-03-10T14:36:32.420Z,91692.44
2023-03-10T14:38:04.040Z,91697.50
2023-03-10T14:39:35.525Z,91705.38
2023-03-10T14:41:07.203Z,91707.28
2023-03-10T14:42:39.849Z,91706.34
2023-03-10T14:44:11.428Z,91687.84
2023-03-10T14:45:44.887Z,91689.06
2023-03-10T14:47:21.628Z,91675.53
2023-03-10T14:48:55.030Z,91694.03
2023-03-10T14:50:27.743Z,91681.31
2023-03-10T14:52:00.097Z,91678.63
2023-03-10T14:53:33.562Z,91672.50
2023-03-10T14:55:08.086Z,91675.63
2023-03-10T14:56:39.726Z,91660.25
2023-03-10T14:58:12.790Z,91659.56
2023-03-10T14:59:44.695Z,91665.81
2023-03-10T15:01:16.385Z,91644.22
2023-03-10T15:02:48.342Z,91657.09
2023-03-10T15:04:20.326Z,91645.13
2023-03-10T15:05:52.107Z,91642.28
2023-03-10T15:07:23.704Z,91641.50
2023-03-10T15:08:55.786Z,91633.88
2023-03-10T15:10:33.554Z,91637.44
2023-03-10T15:12:05.230Z,91634.66
2023-03-10T15:13:37.219Z,91630.75
2023-03-10T15:15:18.917Z,91639.16
2023-03-10T15:16:50.747Z,91651.00
2023-03-10T15:18:23.018Z,91639.09
2023-03-10T15:19:55.346Z,91646.22
2023-03-10T15:21:27.378Z,91652.66
2023-03-10T15:22:59.474Z,91653.13
2023-03-10T15:24:31.042Z,91666.81
2023-03-10T15:26:09.807Z,91666.63
2023-03-10T15:27:41.596Z,91674.53
2023-03-10T15:29:13.700Z,91671.94
2023-03-10T15:30:45.328Z,91665.03
2023-03-10T15:32:17.111Z,91671.06
2023-03-10T15:33:48.969Z,91666.28
2023-03-10T15:35:21.948Z,91670.06
2023-03-10T15:36:54.112Z,91674.91
2023-03-10T15:38:25.800Z,91679.53
2023-03-10T15:39:57.426Z,91669.09
2023-03-10T15:41:29.012Z,91665.25
2023-03-10T15:43:00.682Z,91667.91
2023-03-10T15:44:32.303Z,91666.78
2023-03-10T15:46:07.406Z,91676.00
2023-03-10T15:47:39.184Z,91671.72
2023-03-10T15:49:11.187Z,91670.94
2023-03-10T15:50:43.284Z,91665.91
2023-03-10T15:52:15.065Z,91664.34
2023-03-10T15:53:47.062Z,91653.53
2023-03-10T15:55:19.539Z,91661.72
2023-03-10T15:56:51.911Z,91662.84
2023-03-10T15:58:24.183Z,91654.25
2023-03-10T15:59:56.216Z,91654.97
2023-03-10T16:01:28.334Z,91666.53
2023-03-10T16:02:59.981Z,91670.78
2023-03-10T16:04:32.478Z,91665.69
2023-03-10T16:06:04.928Z,91660.06
2023-03-10T16:07:36.535Z,91651.78
2023-03-10T16:09:13.881Z,91648.50
2023-03-10T16:10:55.703Z,91652.88
2023-03-10T16:12:28.781Z,91647.41
2023-03-10T16:14:01.937Z,91649.34
2023-03-10T16:15:33.675Z,91648.22
2023-03-10T16:17:05.571Z,91646.19
2023-03-10T16:18:37.257Z,91643.41
2023-03-10T16:20:12.378Z,91638.47
2023-03-10T16:21:46.129Z,91636.19
2023-03-10T16:23:17.811Z,91625.84
2023-03-10T16:24:49.488Z,91629.75
2023-03-10T16:26:21.808Z,91624.00
2023-03-10T16:27:53.510Z,91624.00
2023-03-10T16:29:25.182Z,91622.53
2023-03-10T16:30:56.891Z,91615.56
2023-03-10T16:32:28.769Z,91611.72
2023-03-10T16:34:00.347Z,91621.81
2023-03-10T16:35:32.474Z,91614.09
2023-03-10T16:37:04.152Z,91613.28
2023-03-10T16:38:35.863Z,91614.16
2023-03-10T16:40:08.355Z,91608.13
2023-03-10T16:41:40.586Z,91620.50
2023-03-10T16:43:12.410Z,91619.00
2023-03-10T16:44:44.225Z,91620.06
2023-03-10T16:46:18.007Z,91605.00
2023-03-10T16:47:50.032Z,91611.25
2023-03-10T16:49:22.215Z,91618.22
2023-03-10T16:50:53.960Z,91626.31
2023-03-10T16:52:25.745Z,91619.78
2023-03-10T16:54:01.208Z,91624.06
2023-03-10T16:55:32.806Z,91629.44
2023-03-10T16:57:17.880Z,91621.34
2023-03-10T16:58:57.508Z,91614.81
2023-03-10T17:00:34.227Z,91613.75
2023-03-10T17:02:14.593Z,91615.66
2023-03-10T17:03:49.037Z,91610.97
2023-03-10T17:05:23.383Z,91604.75
2023-03-10T17:06:55.203Z,91602.94
2023-03-10T17:08:27.530Z,91608.69
2023-03-10T17:09:59.218Z,91615.66
2023-03-10T17:11:32.087Z,91617.34
2023-03-10T17:13:04.161Z,91620.56
2023-03-10T17:14:36.460Z,91632.06
2023-03-10T17:16:12.624Z,91630.06
2023-03-10T17:17:44.778Z,91632.31
2023-03-10T17:19:20.515Z,91631.53
2023-03-10T17:20:52.444Z,91629.13
2023-03-10T17:22:24.681Z,91631.59
2023-03-10T17:23:56.803Z,91631.41
2023-03-10T17:25:28.925Z,91625.19
2023-03-10T17:27:00.729Z,91639.03
2023-03-10T17:28:33.277Z,91630.69
2023-03-10T17:30:06.683Z,91639.06
2023-03-10T17:31:39.621Z,91649.91
2023-03-10T17:33:11.310Z,91651.19
2023-03-10T17:34:45.129Z,91643.84
2023-03-10T17:36:18.106Z,91649.06
2023-03-10T17:37:51.200Z,91656.94
2023-03-10T17:39:23.031Z,91636.09
2023-03-10T17:40:54.884Z,91639.22
2023-03-10T17:42:29.114Z,91632.63
2023-03-10T17:44:00.683Z,91630.59
2023-03-10T17:45:34.462Z,91635.22
2023-03-10T17:47:07.764Z,91627.84
2023-03-10T17:48:45.371Z,91629.75
2023-03-10T17:50:17.941Z,91626.69
2023-03-10T17:51:50.072Z,91637.13
2023-03-10T17:53:21.738Z,91626.00
2023-03-10T17:54:53.477Z,91624.88
2023-03-10T17:56:25.253Z,91628.25
2023-03-10T17:57:56.974Z,91629.81
2023-03-10T17:59:28.966Z,91620.97
2023-03-10T18:01:07.266Z,91615.59
2023-03-10T18:02:39.137Z,91613.00
2023-03-10T18:04:10.774Z,91608.75
2023-03-10T18:05:42.714Z,91606.84
2023-03-10T18:07:14.280Z,91600.00
2023-03-10T18:08:46.528Z,91598.44
2023-03-10T18:10:18.539Z,91596.97
2023-03-10T18:11:52.074Z,91593.22
2023-03-10T18:13:27.135Z,91593.22
2023-03-10T18:14:59.038Z,91580.66
2023-03-10T18:16:31.766Z,91580.22
2023-03-10T18:18:03.368Z,91577.53
2023-03-10T18:19:35.247Z,91573.25
2023-03-10T18:21:10.066Z,91586.28
2023-03-10T18:22:41.734Z,91574.66
2023-03-10T18:24:13.264Z,91573.88
2023-03-10T18:25:46.666Z,91569.72
2023-03-10T18:27:18.323Z,91555.88
2023-03-10T18:28:50.264Z,91545.66
2023-03-10T18:30:24.388Z,91540.38
2023-03-10T18:31:56.109Z,91532.31
2023-03-10T18:33:27.897Z,91547.22
2023-03-10T18:34:59.983Z,91539.50
2023-03-10T18:36:33.072Z,91546.53
2023-03-10T18:38:08.440Z,91534.63
2023-03-10T18:39:41.637Z,91535.78
2023-03-10T18:41:16.231Z,91544.72